createdAt,value
2023-05-18T00:01:40.831Z,100471.81
2023-05-18T00:04:43.325Z,100479.09
2023-05-18T00:07:46.531Z,100482.88
2023-05-18T00:10:48.784Z,100480.31
2023-05-18T00:13:51.154Z,100471.59
2023-05-18T00:16:56.474Z,100485.03
2023-05-18T00:19:59.657Z,100479.09
2023-05-18T00:23:02.445Z,100478.38
2023-05-18T00:26:04.886Z,100489.88
2023-05-18T00:29:07.640Z,100481.41
2023-05-18T00:32:10.005Z,100487.97
2023-05-18T00:35:12.797Z,100483.81
2023-05-18T00:38:18.178Z,100483.97
2023-05-18T00:41:21.593Z,100483.97
2023-05-18T00:44:23.844Z,100491.25
2023-05-18T00:47:26.124Z,100484.22
2023-05-18T00:50:28.385Z,100482.75
2023-05-18T00:53:31.413Z,100485.41
2023-05-18T00:56:34.338Z,100481.03
2023-05-18T00:59:36.997Z,100486.59
2023-05-18T01:02:43.033Z,100482.72
2023-05-18T01:05:45.586Z,100489.75
2023-05-18T01:08:48.904Z,100494.22
2023-05-18T01:12:04.650Z,100494.13
2023-05-18T01:15:10.025Z,100496.03
2023-05-18T01:18:34.905Z,100499.66
2023-05-18T01:22:13.926Z,100504.25
2023-05-18T01:25:19.851Z,100512.47
2023-05-18T01:28:30.355Z,100508.28
2023-05-18T01:31:33.056Z,100511.03
2023-05-18T01:34:38.040Z,100510.19
2023-05-18T01:37:40.655Z,100512.25
2023-05-18T01:40:51.248Z,100515.75
2023-05-18T01:44:17.454Z,100516.84
2023-05-18T01:47:20.013Z,100521.19
2023-05-18T01:50:29.983Z,100531.84
2023-05-18T01:53:39.624Z,100525.78
2023-05-18T01:56:44.632Z,100525.78
2023-05-18T01:59:48.336Z,100523.00
2023-05-18T02:02:50.790Z,100532.59
2023-05-18T02:05:53.725Z,100532.38
2023-05-18T02:08:56.094Z,100531.75
2023-05-18T02:11:58.714Z,100531.75
2023-05-18T02:15:05.536Z,100532.81
2023-05-18T02:18:08.496Z,100537.66
2023-05-18T02:21:10.962Z,100551.00
2023-05-18T02:24:13.377Z,100547.69
2023-05-18T02:27:16.590Z,100548.78
2023-05-18T02:30:19.266Z,100549.75
2023-05-18T02:33:26.262Z,100553.16
2023-05-18T02:36:37.330Z,100560.41
2023-05-18T02:39:40.365Z,100557.84
2023-05-18T02:42:42.801Z,100558.69
2023-05-18T02:45:45.965Z,100561.47
2023-05-18T02:48:48.400Z,100564.38
2023-05-18T02:51:50.878Z,100567.06
2023-05-18T02:54:54.789Z,100576.00
2023-05-18T02:58:05.292Z,100569.81
2023-05-18T03:01:34.776Z,100555.78
2023-05-18T03:04:37.914Z,100563.75
2023-05-18T03:07:40.199Z,100563.88
2023-05-18T03:10:42.630Z,100571.75
2023-05-18T03:13:44.928Z,100565.56
2023-05-18T03:16:47.445Z,100566.22
2023-05-18T03:19:52.308Z,100569.81
2023-05-18T03:22:54.721Z,100574.31
2023-05-18T03:25:57.497Z,100568.13
2023-05-18T03:29:03.209Z,100574.63
2023-05-18T03:32:06.480Z,100573.69
2023-05-18T03:35:09.027Z,100576.34
2023-05-18T03:38:11.205Z,100586.16
2023-05-18T03:41:18.387Z,100579.22
2023-05-18T03:44:21.997Z,100583.84
2023-05-18T03:47:24.337Z,100597.16
2023-05-18T03:50:27.013Z,100601.00
2023-05-18T03:53:29.639Z,100591.44
2023-05-18T03:56:32.200Z,100595.91
2023-05-18T03:59:34.439Z,100595.91
2023-05-18T04:02:37.264Z,100601.22
2023-05-18T04:05:39.859Z,100600.47
2023-05-18T04:08:42.213Z,100601.22
2023-05-18T04:11:45.139Z,100601.00
2023-05-18T04:14:50.266Z,100608.25
2023-05-18T04:17:53.881Z,100616.97
2023-05-18T04:20:56.835Z,100610.91
2023-05-18T04:24:02.961Z,100622.75
2023-05-18T04:27:05.628Z,100622.75
2023-05-18T04:30:10.755Z,100621.03
2023-05-18T04:33:16.379Z,100619.13
2023-05-18T04:36:21.381Z,100633.41
2023-05-18T04:39:25.833Z,100630.63
2023-05-18T04:42:29.054Z,100627.84
2023-05-18T04:45:32.074Z,100628.72
2023-05-18T04:48:36.381Z,100616.97
2023-05-18T04:54:44.336Z,100631.25
2023-05-18T04:57:47.701Z,100619.66
2023-05-18T05:00:49.982Z,100624.00
2023-05-18T05:03:52.517Z,100638.06
2023-05-18T05:06:55.010Z,100635.16
2023-05-18T05:09:57.270Z,100636.13
2023-05-18T05:12:59.630Z,100636.75
2023-05-18T05:16:02.655Z,100639.78
2023-05-18T05:19:05.696Z,100645.09
2023-05-18T05:22:08.026Z,100650.19
2023-05-18T05:25:10.660Z,100646.78
2023-05-18T05:28:13.568Z,100646.78
2023-05-18T05:31:16.810Z,100643.16
2023-05-18T05:34:20.660Z,100654.44
2023-05-18T05:37:24.362Z,100652.50
2023-05-18T05:40:26.833Z,100656.75
2023-05-18T05:43:30.597Z,100653.63
2023-05-18T05:46:33.221Z,100652.19
2023-05-18T05:49:37.335Z,100662.25
2023-05-18T05:52:41.561Z,100673.28
2023-05-18T05:55:44.886Z,100663.16
2023-05-18T05:58:49.630Z,100670.63
2023-05-18T06:01:52.552Z,100669.06
2023-05-18T06:04:55.400Z,100680.78
2023-05-18T06:07:57.865Z,100676.53
2023-05-18T06:11:00.403Z,100682.72
2023-05-18T06:14:02.810Z,100679.31
2023-05-18T06:17:05.807Z,100690.72
2023-05-18T06:20:08.602Z,100682.06
2023-05-18T06:23:10.869Z,100688.25
2023-05-18T06:26:31.649Z,100683.78
2023-05-18T06:30:07.799Z,100698.91
2023-05-18T06:33:36.838Z,100693.38
2023-05-18T06:36:39.308Z,100691.44
2023-05-18T06:39:41.551Z,100697.41
2023-05-18T06:42:44.282Z,100693.75
2023-05-18T06:46:24.685Z,100705.25
2023-05-18T06:49:30.723Z,100706.00
2023-05-18T06:52:33.173Z,100709.88
2023-05-18T06:55:35.765Z,100715.22
2023-05-18T06:58:38.446Z,100713.41
2023-05-18T07:01:41.530Z,100716.59
2023-05-18T07:04:48.914Z,100717.66
2023-05-18T07:07:51.768Z,100723.09
2023-05-18T07:10:55.190Z,100724.81
2023-05-18T07:13:57.501Z,100734.75
2023-05-18T07:16:59.849Z,100734.75
2023-05-18T07:20:02.207Z,100732.09
2023-05-18T07:23:04.555Z,100733.75
2023-05-18T07:26:10.075Z,100737.06
2023-05-18T07:29:12.388Z,100741.22
2023-05-18T07:32:14.714Z,100743.25
2023-05-18T07:35:19.490Z,100738.56
2023-05-18T07:38:21.791Z,100740.16
2023-05-18T07:41:24.140Z,100745.22
2023-05-18T07:44:26.622Z,100752.16
2023-05-18T07:47:29.398Z,100743.41
2023-05-18T07:50:31.752Z,100753.22
2023-05-18T07:53:34.883Z,100751.53
2023-05-18T07:56:37.164Z,100752.50
2023-05-18T07:59:39.435Z,100745.47
2023-05-18T08:02:43.208Z,100753.69
2023-05-18T08:05:45.631Z,100756.97
2023-05-18T08:08:47.950Z,100761.94
2023-05-18T08:11:51.056Z,100758.06
2023-05-18T08:14:53.662Z,100760.19
2023-05-18T08:17:57.146Z,100764.88
2023-05-18T08:21:00.444Z,100758.44
2023-05-18T08:24:07.181Z,100766.09
2023-05-18T08:27:11.280Z,100770.00
2023-05-18T08:30:14.184Z,100762.97
2023-05-18T08:33:16.782Z,100773.19
2023-05-18T08:36:19.128Z,100780.91
2023-05-18T08:39:22.585Z,100773.00
2023-05-18T08:42:48.734Z,100769.13
2023-05-18T08:45:53.175Z,100771.38
2023-05-18T08:48:57.467Z,100779.13
2023-05-18T08:52:04.277Z,100782.75
2023-05-18T08:55:09.472Z,100784.00
2023-05-18T08:58:14.373Z,100779.94
2023-05-18T09:01:17.822Z,100768.34
2023-05-18T09:04:20.937Z,100769.56
2023-05-18T09:07:23.629Z,100773.00
2023-05-18T09:10:26.190Z,100776.28
2023-05-18T09:13:29.701Z,100766.47
2023-05-18T09:16:33.728Z,100765.50
2023-05-18T09:19:36.232Z,100773.50
2023-05-18T09:22:40.669Z,100773.50
2023-05-18T09:25:49.915Z,100774.09
2023-05-18T09:28:52.453Z,100780.91
2023-05-18T09:31:55.487Z,100782.16
2023-05-18T09:35:04.173Z,100776.69
2023-05-18T09:38:06.824Z,100774.00
2023-05-18T09:41:17.583Z,100785.31
2023-05-18T09:44:30.941Z,100783.25
2023-05-18T09:47:34.453Z,100792.13
2023-05-18T09:50:37.571Z,100784.84
2023-05-18T09:53:40.712Z,100783.88
2023-05-18T09:56:52.336Z,100787.16
2023-05-18T10:00:13.565Z,100781.56
2023-05-18T10:03:20.807Z,100776.47
2023-05-18T10:06:28.405Z,100777.47
2023-05-18T10:09:31.347Z,100777.47
2023-05-18T10:12:33.825Z,100778.69
2023-05-18T10:15:37.985Z,100772.13
2023-05-18T10:18:40.964Z,100776.34
2023-05-18T10:21:44.491Z,100786.81
2023-05-18T10:24:51.359Z,100778.69
2023-05-18T10:27:58.209Z,100778.69
2023-05-18T10:31:00.877Z,100786.56
2023-05-18T10:34:03.965Z,100782.31
2023-05-18T10:37:07.396Z,100784.75
2023-05-18T10:40:11.683Z,100780.88
2023-05-18T10:43:19.112Z,100786.72
2023-05-18T10:46:26.967Z,100792.69
2023-05-18T10:49:30.256Z,100783.81
2023-05-18T10:52:33.352Z,100786.72
2023-05-18T10:55:36.106Z,100779.81
2023-05-18T10:58:38.879Z,100785.75
2023-05-18T11:01:42.299Z,100772.41
2023-05-18T11:04:46.561Z,100781.38
2023-05-18T11:07:49.854Z,100787.13
2023-05-18T11:11:00.318Z,100788.66
2023-05-18T11:14:03.362Z,100785.13
2023-05-18T11:17:26.037Z,100793.88
2023-05-18T11:20:28.377Z,100794.50
2023-05-18T11:23:33.604Z,100790.88
2023-05-18T11:26:42.855Z,100794.50
2023-05-18T11:29:45.206Z,100798.16
2023-05-18T11:32:51.609Z,100801.06
2023-05-18T11:36:14.883Z,100804.81
2023-05-18T11:39:24.152Z,100798.38
2023-05-18T11:42:32.368Z,100806.03
2023-05-18T11:45:34.797Z,100807.34
2023-05-18T11:48:44.196Z,100810.28
2023-05-18T11:52:08.904Z,100812.97
2023-05-18T11:55:14.327Z,100815.88
2023-05-18T11:58:20.507Z,100809.91
2023-05-18T12:01:25.131Z,100811.72
2023-05-18T12:04:27.823Z,100811.25
2023-05-18T12:07:32.226Z,100812.97
2023-05-18T12:10:36.786Z,100805.69
2023-05-18T12:13:39.080Z,100812.47
2023-05-18T12:16:41.595Z,100811.50
2023-05-18T12:19:44.731Z,100811.72
2023-05-18T12:22:52.702Z,100813.44
2023-05-18T12:25:55.790Z,100811.50
2023-05-18T12:29:02.038Z,100810.28
2023-05-18T12:32:09.602Z,100811.16
2023-05-18T12:35:11.899Z,100805.69
2023-05-18T12:38:17.281Z,100809.78
2023-05-18T12:41:24.030Z,100809.44
2023-05-18T12:44:26.342Z,100810.78
2023-05-18T12:47:33.029Z,100810.03
2023-05-18T12:50:37.303Z,100809.78
2023-05-18T12:53:43.193Z,100807.38
2023-05-18T12:56:53.178Z,100808.81
2023-05-18T12:59:55.914Z,100812.00
2023-05-18T13:03:12.567Z,100809.66
2023-05-18T13:06:18.661Z,100808.22
2023-05-18T13:09:20.964Z,100812.19
2023-05-18T13:12:39.922Z,100805.50
2023-05-18T13:15:43.096Z,100810.00
2023-05-18T13:18:46.855Z,100808.53
2023-05-18T13:21:56.390Z,100814.13
2023-05-18T13:24:58.608Z,100804.69
2023-05-18T13:28:02.188Z,100806.50
2023-05-18T13:31:04.595Z,100816.97
2023-05-18T13:34:06.946Z,100819.75
2023-05-18T13:37:10.803Z,100812.47
2023-05-18T13:40:15.702Z,100814.00
2023-05-18T13:43:18.000Z,100812.31
2023-05-18T13:46:20.361Z,100814.88
2023-05-18T13:49:22.707Z,100815.72
2023-05-18T13:52:24.997Z,100812.19
2023-05-18T13:55:27.312Z,100812.91
2023-05-18T13:58:29.943Z,100816.31
2023-05-18T14:01:32.734Z,100821.66
2023-05-18T14:04:35.030Z,100828.22
2023-05-18T14:07:38.088Z,100823.16
2023-05-18T14:10:40.666Z,100824.13
2023-05-18T14:13:42.911Z,100824.72
2023-05-18T14:16:45.285Z,100828.47
2023-05-18T14:19:47.557Z,100822.44
2023-05-18T14:22:49.816Z,100824.38
2023-05-18T14:25:52.158Z,100823.88
2023-05-18T14:28:54.488Z,100826.31
2023-05-18T14:31:56.969Z,100827.78
2023-05-18T14:34:59.293Z,100826.81
2023-05-18T14:38:03.008Z,100822.91
2023-05-18T14:41:05.497Z,100820.97
2023-05-18T14:44:09.934Z,100830.44
2023-05-18T14:47:12.491Z,100829.47
2023-05-18T14:50:14.848Z,100830.16
2023-05-18T14:53:17.126Z,100831.28
2023-05-18T14:56:19.450Z,100839.44
2023-05-18T14:59:22.030Z,100837.97
2023-05-18T15:02:24.433Z,100844.16
2023-05-18T15:05:26.912Z,100845.53
2023-05-18T15:08:29.471Z,100841.25
2023-05-18T15:11:31.885Z,100845.13
2023-05-18T15:14:34.143Z,100839.78
2023-05-18T15:17:36.464Z,100846.97
2023-05-18T15:20:43.500Z,100843.44
2023-05-18T15:23:46.138Z,100843.56
2023-05-18T15:26:48.707Z,100846.00
2023-05-18T15:29:50.982Z,100849.41
2023-05-18T15:32:53.358Z,100836.78
2023-05-18T15:35:55.690Z,100846.50
2023-05-18T15:38:58.117Z,100847.47
2023-05-18T15:42:00.364Z,100843.53
2023-05-18T15:45:03.139Z,100837.34
2023-05-18T15:48:06.363Z,100847.47
2023-05-18T15:51:08.679Z,100846.59
2023-05-18T15:54:11.005Z,100845.03
2023-05-18T15:57:13.284Z,100854.00
2023-05-18T16:00:15.843Z,100851.56
2023-05-18T16:03:19.196Z,100863.00
2023-05-18T16:06:21.636Z,100854.97
2023-05-18T16:09:23.959Z,100858.63
2023-05-18T16:12:26.296Z,100853.38
2023-05-18T16:15:28.576Z,100863.13
2023-05-18T16:18:30.960Z,100864.19
2023-05-18T16:21:33.405Z,100866.75
2023-05-18T16:24:36.146Z,100866.16
2023-05-18T16:27:38.355Z,100862.66
2023-05-18T16:30:40.616Z,100862.75
2023-05-18T16:33:42.859Z,100867.25
2023-05-18T16:36:45.297Z,100863.00
2023-05-18T16:39:47.555Z,100863.72
2023-05-18T16:42:49.896Z,100870.03
2023-05-18T16:45:52.560Z,100871.97
2023-05-18T16:48:55.088Z,100871.25
2023-05-18T16:51:58.615Z,100875.84
2023-05-18T16:58:04.108Z,100878.03
2023-05-18T17:01:19.365Z,100876.34
2023-05-18T17:04:28.626Z,100871.22
2023-05-18T17:07:31.010Z,100869.75
2023-05-18T17:10:35.516Z,100874.41
2023-05-18T17:13:37.902Z,100867.34
2023-05-18T17:16:41.050Z,100869.28
2023-05-18T17:19:43.355Z,100874.75
2023-05-18T17:22:45.597Z,100883.59
2023-05-18T17:25:48.613Z,100891.63
2023-05-18T17:28:51.061Z,100885.03
2023-05-18T17:31:53.598Z,100888.69
2023-05-18T17:34:56.087Z,100892.53
2023-05-18T17:37:58.486Z,100891.91
2023-05-18T17:41:01.359Z,100898.31
2023-05-18T17:44:03.531Z,100900.28
2023-05-18T17:47:06.260Z,100889.59
2023-05-18T17:50:08.507Z,100884.50
2023-05-18T17:53:10.729Z,100872.34
2023-05-18T17:56:13.108Z,100869.78
2023-05-18T17:59:15.556Z,100867.22
2023-05-18T18:02:17.951Z,100883.25
2023-05-18T18:05:20.232Z,100886.03
2023-05-18T18:08:22.578Z,100889.06
2023-05-18T18:11:26.044Z,100887.47
2023-05-18T18:14:28.412Z,100891.44
2023-05-18T18:17:30.741Z,100898.00
2023-05-18T18:20:36.568Z,100907.69
2023-05-18T18:23:40.102Z,100918.81
2023-05-18T18:26:42.726Z,100911.50
2023-05-18T18:29:45.504Z,100919.72
2023-05-18T18:32:48.212Z,100927.25
2023-05-18T18:35:50.728Z,100932.78
2023-05-18T18:38:52.999Z,100928.31
2023-05-18T18:41:55.449Z,100927.25
2023-05-18T18:44:57.758Z,100936.91
2023-05-18T18:48:00.499Z,100927.00
2023-05-18T18:51:02.819Z,100922.28
2023-05-18T18:54:05.770Z,100928.25
2023-05-18T18:57:07.952Z,100932.00
2023-05-18T19:00:14.253Z,100927.63
2023-05-18T19:03:16.524Z,100933.81
2023-05-18T19:06:18.833Z,100938.19
2023-05-18T19:09:21.365Z,100939.16
2023-05-18T19:12:23.647Z,100940.84
2023-05-18T19:15:26.279Z,100946.94
2023-05-18T19:18:28.584Z,100949.59
2023-05-18T19:21:30.926Z,100959.41
2023-05-18T19:24:33.632Z,100967.53
2023-05-18T19:27:36.485Z,100969.25
2023-05-18T19:30:38.756Z,100969.25
2023-05-18T19:33:41.572Z,100964.66
2023-05-18T19:36:43.815Z,100969.25
2023-05-18T19:39:46.022Z,100979.16
2023-05-18T19:42:48.412Z,100982.06
2023-05-18T19:45:50.893Z,100984.94
2023-05-18T19:48:55.585Z,100997.56
2023-05-18T19:51:58.670Z,100987.97
2023-05-18T19:55:02.216Z,100990.41
2023-05-18T19:58:04.883Z,101000.22
2023-05-18T20:01:09.938Z,101006.53
2023-05-18T20:04:13.130Z,101002.16
2023-05-18T20:07:17.109Z,101003.84
2023-05-18T20:10:19.474Z,101009.94
2023-05-18T20:13:22.802Z,101008.94
2023-05-18T20:16:26.470Z,101005.31
2023-05-18T20:19:28.895Z,101014.28
2023-05-18T20:22:31.199Z,101019.41
2023-05-18T20:25:35.219Z,101017.47
2023-05-18T20:28:37.695Z,101021.09
2023-05-18T20:31:40.337Z,101013.22
2023-05-18T20:34:44.543Z,101021.09
2023-05-18T20:37:46.966Z,101026.44
2023-05-18T20:40:50.961Z,101021.22
2023-05-18T20:43:53.314Z,101022.06
2023-05-18T20:46:55.804Z,101022.06
2023-05-18T20:49:58.765Z,101019.28
2023-05-18T20:53:01.223Z,101023.78
2023-05-18T20:56:05.328Z,101023.66
2023-05-18T20:59:09.975Z,101019.19
2023-05-18T21:02:12.389Z,101028.03
2023-05-18T21:05:16.687Z,101020.91
2023-05-18T21:08:18.965Z,101030.50
2023-05-18T21:11:21.254Z,101029.66
2023-05-18T21:14:23.647Z,101026.00
2023-05-18T21:17:26.348Z,101034.03
2023-05-18T21:20:28.595Z,101029.66
2023-05-18T21:23:33.634Z,101034.97
2023-05-18T21:26:36.111Z,101039.56
2023-05-18T21:29:38.405Z,101042.97
2023-05-18T21:32:40.968Z,101037.66
2023-05-18T21:35:43.659Z,101036.69
2023-05-18T21:38:45.933Z,101034.97
2023-05-18T21:41:48.296Z,101039.56
2023-05-18T21:44:50.566Z,101039.69
2023-05-18T21:47:52.995Z,101045.88
2023-05-18T21:50:55.236Z,101046.63
2023-05-18T21:53:58.231Z,101047.56
2023-05-18T21:57:00.646Z,101053.75
2023-05-18T22:00:03.282Z,101050.13
2023-05-18T22:03:14.810Z,101049.28
2023-05-18T22:06:18.049Z,101057.28
2023-05-18T22:09:20.520Z,101054.84
2023-05-18T22:12:23.575Z,101058.56
2023-05-18T22:15:25.902Z,101062.53
2023-05-18T22:18:28.195Z,101058.00
2023-05-18T22:21:31.052Z,101056.81
2023-05-18T22:24:33.324Z,101059.81
2023-05-18T22:27:36.873Z,101053.94
2023-05-18T22:30:40.026Z,101063.19
2023-05-18T22:33:42.292Z,101061.38
2023-05-18T22:36:44.621Z,101060.31
2023-05-18T22:39:46.904Z,101058.97
2023-05-18T22:42:49.266Z,101059.34
2023-05-18T22:45:51.548Z,101059.91
2023-05-18T22:48:53.825Z,101055.53
2023-05-18T22:51:56.399Z,101054.22
2023-05-18T22:54:58.608Z,101056.25
2023-05-18T22:58:00.908Z,101052.72
2023-05-18T23:01:03.264Z,101052.63
2023-05-18T23:04:06.344Z,101044.50
2023-05-18T23:07:08.712Z,101046.31
2023-05-18T23:10:11.801Z,101040.56
2023-05-18T23:13:17.068Z,101041.13
2023-05-18T23:16:20.619Z,101043.34
2023-05-18T23:19:23.758Z,101048.50
2023-05-18T23:22:26.137Z,101050.28
2023-05-18T23:25:28.999Z,101057.59
2023-05-18T23:28:31.242Z,101052.69
2023-05-18T23:31:33.588Z,101055.50
2023-05-18T23:34:36.407Z,101049.72
2023-05-18T23:37:41.507Z,101061.19
2023-05-18T23:40:45.263Z,101074.34
2023-05-18T23:43:47.767Z,101062.41
2023-05-18T23:46:50.568Z,101070.88
2023-05-18T23:49:53.162Z,101066.59
2023-05-18T23:52:56.995Z,101058.97
2023-05-18T23:55:59.807Z,101061.53
2023-05-18T23:59:02.484Z,101058.66
